Time;durP1;ratioP1;P1;durP2;ratioP2;P2;SDS_P1;SDS_P2;PMS_P1;PMS_P2;Temp;Humidity;BMP_temperature;BMP_pressure;BME280_temperature;BME280_humidity;BME280_pressure;Samples;Min_cycle;Max_cycle;Signal;HPM_P1;HPM_P2
2022/01/30 00:01:55;;;;;;;1.33;0.80;;;4.70;99.90;;;;;;6214219;23;20011;-86
2022/01/30 00:04:21;;;;;;;2.03;0.95;;;4.70;99.90;;;;;;6214197;23;20008;-85
2022/01/30 00:06:46;;;;;;;1.23;0.88;;;4.70;99.90;;;;;;6215683;23;20004;-86
2022/01/30 00:09:20;;;;;;;1.00;0.90;;;4.60;99.90;;;;;;6215660;23;19999;-88
2022/01/30 00:11:51;;;;;;;1.13;0.70;;;4.70;99.90;;;;;;6214216;23;20390;-87
2022/01/30 00:14:19;;;;;;;0.93;0.82;;;4.70;99.90;;;;;;6214170;23;20508;-87
2022/01/30 00:16:45;;;;;;;0.95;0.60;;;4.70;99.90;;;;;;6215628;23;20373;-87
2022/01/30 00:19:26;;;;;;;1.08;0.70;;;4.60;99.90;;;;;;6214108;23;20015;-87
2022/01/30 00:22:02;;;;;;;1.38;0.70;;;4.70;99.90;;;;;;6216066;23;20456;-87
2022/01/30 00:24:43;;;;;;;0.77;0.77;;;4.70;99.90;;;;;;6215980;23;20318;-87
2022/01/30 00:27:16;;;;;;;1.80;0.73;;;4.70;99.90;;;;;;6214155;23;20000;-87
2022/01/30 00:29:41;;;;;;;0.93;0.80;;;4.70;99.90;;;;;;6215652;23;20012;-86
2022/01/30 00:32:07;;;;;;;0.95;0.73;;;4.70;99.90;;;;;;6213996;23;20008;-86
2022/01/30 00:34:33;;;;;;;1.42;1.00;;;4.70;99.90;;;;;;6214066;23;20031;-86
2022/01/30 00:37:01;;;;;;;1.02;0.85;;;4.70;99.90;;;;;;6215567;23;20032;-87
2022/01/30 00:39:27;;;;;;;1.55;1.05;;;4.70;99.90;;;;;;6216185;23;20000;-88
2022/01/30 00:41:53;;;;;;;2.03;0.73;;;4.70;99.90;;;;;;6216050;23;20051;-88
2022/01/30 00:44:18;;;;;;;1.30;0.88;;;4.70;99.90;;;;;;6216078;23;20375;-87
2022/01/30 00:46:45;;;;;;;0.80;0.70;;;4.70;99.90;;;;;;6216042;23;20005;-86
2022/01/30 00:49:11;;;;;;;0.93;0.60;;;4.70;99.90;;;;;;6215772;23;20048;-87
2022/01/30 00:51:37;;;;;;;0.90;0.70;;;4.70;99.90;;;;;;6217555;23;20369;-87
2022/01/30 00:54:04;;;;;;;1.05;0.80;;;4.70;99.90;;;;;;6215872;23;20011;-86
2022/01/30 00:56:30;;;;;;;0.85;0.75;;;4.70;99.90;;;;;;6217462;23;20036;-86
2022/01/30 00:58:56;;;;;;;1.17;0.75;;;4.70;99.90;;;;;;6215985;23;20385;-86
2022/01/30 01:01:21;;;;;;;0.82;0.70;;;4.70;99.90;;;;;;6215807;23;20005;-87
2022/01/30 01:03:47;;;;;;;0.77;0.68;;;4.70;99.90;;;;;;6217391;23;20035;-87
2022/01/30 01:06:13;;;;;;;1.02;0.88;;;4.70;99.90;;;;;;6215656;23;20000;-87
2022/01/30 01:09:01;;;;;;;1.10;0.90;;;4.70;99.90;;;;;;6215718;23;20001;-86
2022/01/30 01:25:09;;;;;;;0.70;0.70;;;4.70;99.90;;;;;;6217350;23;20076;-88
2022/01/30 01:27:34;;;;;;;0.77;0.68;;;4.70;99.90;;;;;;6215609;23;20024;-88
2022/01/30 01:30:00;;;;;;;1.30;0.90;;;4.70;99.90;;;;;;6215566;23;20012;-87
2022/01/30 01:32:27;;;;;;;1.20;0.80;;;4.70;99.90;;;;;;6217143;23;20365;-87
2022/01/30 01:34:52;;;;;;;0.70;0.60;;;4.70;99.90;;;;;;6217021;23;20452;-88
2022/01/30 01:37:18;;;;;;;1.45;0.80;;;4.70;99.90;;;;;;6215411;23;20009;-87
2022/01/30 01:39:44;;;;;;;1.90;0.82;;;4.70;99.90;;;;;;6215358;23;20388;-88
2022/01/30 01:42:10;;;;;;;2.33;0.77;;;4.80;99.90;;;;;;6215492;23;20056;-87
2022/01/30 01:44:42;;;;;;;1.50;0.90;;;4.70;99.90;;;;;;6215452;23;20004;-87
2022/01/30 01:47:09;;;;;;;0.82;0.68;;;4.70;99.90;;;;;;6215498;23;20000;-87
2022/01/30 01:49:35;;;;;;;0.70;0.60;;;4.70;99.90;;;;;;6247280;23;20019;-87
2022/01/30 01:52:24;;;;;;;1.02;0.70;;;4.80;99.90;;;;;;6220045;23;20004;-87
2022/01/30 01:54:49;;;;;;;0.75;0.68;;;4.80;99.90;;;;;;6246667;23;20000;-87
2022/01/30 01:57:16;;;;;;;0.95;0.65;;;4.80;99.90;;;;;;6247191;23;20056;-86
2022/01/30 01:59:41;;;;;;;1.13;0.60;;;4.70;99.90;;;;;;6220151;23;20012;-87
2022/01/30 02:02:07;;;;;;;0.70;0.65;;;4.80;99.90;;;;;;6220212;23;20026;-87
2022/01/30 02:04:34;;;;;;;0.82;0.73;;;4.80;99.90;;;;;;6220340;23;20441;-86
2022/01/30 02:07:32;;;;;;;1.10;0.80;;;4.80;99.90;;;;;;6220073;23;20009;-86
2022/01/30 02:09:48;;;;;;;1.02;0.60;;;4.70;99.90;;;;;;6246032;23;20000;-87
2022/01/30 02:12:19;;;;;;;1.00;0.70;;;4.80;99.90;;;;;;6220141;23;20452;-86
2022/01/30 02:25:56;;;;;;;0.95;0.65;;;4.70;99.90;;;;;;6247339;23;20008;-86
2022/01/30 02:28:22;;;;;;;1.02;0.70;;;4.80;99.90;;;;;;6220045;23;20476;-86
2022/01/30 02:30:58;;;;;;;0.60;0.60;;;4.80;99.90;;;;;;6220038;23;20081;-86
2022/01/30 02:33:23;;;;;;;0.88;0.60;;;4.80;99.90;;;;;;6219992;23;20004;-86
2022/01/30 02:35:49;;;;;;;0.80;0.80;;;4.70;99.90;;;;;;6247046;23;20071;-86
2022/01/30 02:38:17;;;;;;;0.82;0.63;;;4.80;99.90;;;;;;6220004;23;20005;-87
2022/01/30 02:40:45;;;;;;;0.80;0.65;;;4.70;99.90;;;;;;6219864;23;20004;-87
2022/01/30 02:43:14;;;;;;;0.80;0.70;;;4.80;99.90;;;;;;6219882;23;20008;-87
2022/01/30 02:45:46;;;;;;;0.70;0.70;;;4.80;99.90;;;;;;6219839;23;20329;-86
2022/01/30 02:48:19;;;;;;;0.70;0.70;;;4.80;99.90;;;;;;6246746;23;20036;-86
2022/01/30 02:50:55;;;;;;;0.85;0.70;;;4.70;99.90;;;;;;6219794;23;20040;-86
2022/01/30 02:53:29;;;;;;;0.70;0.60;;;4.70;99.90;;;;;;6219846;23;20004;-87
2022/01/30 02:55:56;;;;;;;0.68;0.60;;;4.70;99.90;;;;;;6219809;23;20004;-87
2022/01/30 02:58:22;;;;;;;1.42;0.70;;;4.70;99.90;;;;;;6219713;23;20012;-87
2022/01/30 03:00:47;;;;;;;1.08;0.70;;;4.70;99.90;;;;;;6219676;23;20087;-86
2022/01/30 03:03:13;;;;;;;0.82;0.68;;;4.70;99.90;;;;;;6246885;23;20002;-87
2022/01/30 03:05:39;;;;;;;1.70;0.60;;;4.70;99.90;;;;;;6219652;23;20027;-86
2022/01/30 03:08:04;;;;;;;1.73;0.70;;;4.80;99.90;;;;;;6219703;23;20286;-86
2022/01/30 03:10:30;;;;;;;0.60;0.60;;;4.80;99.90;;;;;;6219610;23;20005;-86
2022/01/30 03:12:56;;;;;;;1.00;0.88;;;4.80;99.90;;;;;;6219592;23;20083;-86
2022/01/30 03:15:21;;;;;;;0.70;0.70;;;4.70;99.90;;;;;;6219604;23;20336;-86
2022/01/30 03:17:47;;;;;;;0.60;0.50;;;4.80;99.90;;;;;;6219517;23;20071;-86
2022/01/30 03:20:13;;;;;;;0.70;0.70;;;4.80;99.90;;;;;;6219402;23;20051;-86
2022/01/30 03:22:40;;;;;;;0.47;0.47;;;4.70;99.90;;;;;;6219546;23;20008;-86
2022/01/30 03:25:06;;;;;;;1.48;0.70;;;4.70;99.90;;;;;;6219459;23;20000;-86
2022/01/30 03:27:31;;;;;;;0.55;0.50;;;4.80;99.90;;;;;;6219361;23;20058;-86
2022/01/30 03:30:06;;;;;;;0.80;0.60;;;4.70;99.90;;;;;;6219396;23;20008;-86
2022/01/30 03:32:32;;;;;;;0.70;0.70;;;4.80;99.90;;;;;;6219379;23;20031;-86
2022/01/30 03:34:58;;;;;;;0.70;0.60;;;4.70;99.90;;;;;;6245833;23;20004;-86
2022/01/30 03:37:24;;;;;;;0.75;0.65;;;4.70;99.90;;;;;;6219345;23;20011;-86
2022/01/30 03:39:49;;;;;;;0.60;0.60;;;4.80;99.90;;;;;;6219287;23;20004;-86
2022/01/30 03:42:15;;;;;;;0.50;0.50;;;4.80;99.90;;;;;;6219291;23;20322;-86
2022/01/30 03:44:41;;;;;;;0.93;0.70;;;4.70;99.90;;;;;;6219350;23;20003;-86
2022/01/30 03:47:06;;;;;;;0.50;0.50;;;4.80;99.90;;;;;;6219348;23;20019;-86
2022/01/30 03:49:34;;;;;;;1.10;0.50;;;4.70;99.90;;;;;;6245865;23;20095;-86
2022/01/30 03:52:00;;;;;;;0.65;0.50;;;4.80;99.90;;;;;;6219277;23;20011;-86
2022/01/30 03:54:25;;;;;;;0.60;0.60;;;4.80;99.90;;;;;;6219233;23;20346;-86
2022/01/30 03:56:51;;;;;;;0.63;0.52;;;4.80;99.90;;;;;;6219182;23;20348;-85
2022/01/30 03:59:17;;;;;;;0.80;0.70;;;4.70;99.90;;;;;;6246082;23;20000;-85
2022/01/30 04:01:42;;;;;;;1.05;0.80;;;4.80;99.90;;;;;;6245968;23;20380;-85
2022/01/30 04:04:08;;;;;;;0.73;0.65;;;4.70;99.90;;;;;;6220099;23;19996;-85
2022/01/30 04:06:34;;;;;;;1.10;0.70;;;4.80;99.90;;;;;;6219100;23;20471;-85
2022/01/30 04:09:00;;;;;;;0.70;0.60;;;4.80;99.90;;;;;;6219041;23;20011;-85
2022/01/30 04:11:28;;;;;;;1.42;0.80;;;4.80;99.90;;;;;;6246655;23;20000;-85
2022/01/30 04:13:54;;;;;;;0.85;0.70;;;4.80;99.90;;;;;;6218938;23;20036;-85
2022/01/30 04:16:20;;;;;;;2.58;0.70;;;4.80;99.90;;;;;;6219042;23;20376;-85
2022/01/30 04:18:45;;;;;;;1.42;0.50;;;4.80;99.90;;;;;;6218986;23;20058;-85
2022/01/30 04:21:14;;;;;;;1.25;0.70;;;4.80;99.90;;;;;;6218857;23;20008;-85
2022/01/30 04:23:40;;;;;;;1.13;0.80;;;4.80;99.90;;;;;;6194607;23;20389;-85
2022/01/30 04:26:06;;;;;;;1.75;0.80;;;4.80;99.90;;;;;;6219088;23;20000;-84
2022/01/30 04:28:32;;;;;;;1.38;0.60;;;4.80;99.90;;;;;;6219157;23;20015;-85
2022/01/30 04:30:58;;;;;;;1.25;0.90;;;4.80;99.90;;;;;;6245863;23;20000;-85
2022/01/30 04:33:24;;;;;;;1.52;1.00;;;4.80;99.90;;;;;;6219012;23;19996;-85
2022/01/30 04:35:50;;;;;;;1.02;0.73;;;4.80;99.90;;;;;;6218993;23;20010;-85
2022/01/30 04:38:29;;;;;;;1.65;0.88;;;4.80;99.90;;;;;;6218993;23;20015;-85
2022/01/30 04:41:30;;;;;;;2.40;1.10;;;4.80;99.90;;;;;;6219223;23;20004;-85
2022/01/30 04:52:51;;;;;;;4.68;1.20;;;4.80;99.90;;;;;;6245953;23;20111;-85
2022/01/30 05:05:46;;;;;;;4.07;1.42;;;4.80;99.90;;;;;;6246333;23;20004;-84
2022/01/30 05:08:08;;;;;;;2.88;1.30;;;4.80;99.90;;;;;;6245446;23;20000;-84
2022/01/30 05:10:34;;;;;;;3.05;1.45;;;4.80;99.90;;;;;;6218761;23;20015;-85
2022/01/30 05:13:02;;;;;;;5.20;1.48;;;4.80;99.90;;;;;;6218928;23;20087;-85
2022/01/30 05:15:29;;;;;;;2.65;1.35;;;4.80;99.90;;;;;;6245687;23;20005;-85
2022/01/30 05:17:55;;;;;;;5.78;1.55;;;4.80;99.90;;;;;;6218918;23;20015;-84
2022/01/30 05:20:21;;;;;;;5.25;1.65;;;4.80;99.90;;;;;;6218701;23;20001;-85
2022/01/30 05:22:47;;;;;;;3.60;1.38;;;4.80;99.90;;;;;;6218787;23;20000;-85
2022/01/30 05:25:13;;;;;;;4.43;1.38;;;4.80;99.90;;;;;;6218814;23;20134;-85
2022/01/30 05:27:40;;;;;;;4.18;1.80;;;4.80;99.90;;;;;;6220329;23;20001;-85
2022/01/30 05:30:06;;;;;;;3.38;1.30;;;4.80;99.90;;;;;;6220548;23;20095;-85
2022/01/30 05:32:33;;;;;;;5.38;1.77;;;4.80;99.90;;;;;;6220569;23;20348;-85
2022/01/30 05:34:59;;;;;;;3.92;1.40;;;4.80;99.90;;;;;;6220550;23;20035;-85
2022/01/30 05:37:25;;;;;;;4.13;1.50;;;4.80;99.90;;;;;;6220551;23;20004;-85
2022/01/30 05:39:51;;;;;;;5.70;1.60;;;4.80;99.90;;;;;;6220360;23;20027;-85
2022/01/30 05:42:19;;;;;;;4.97;1.90;;;4.80;99.90;;;;;;6220337;23;20004;-85
2022/01/30 05:44:54;;;;;;;4.85;1.95;;;4.80;99.90;;;;;;6220398;23;20134;-85
2022/01/30 05:47:34;;;;;;;6.35;1.77;;;4.80;99.90;;;;;;6220193;23;20003;-85
2022/01/30 05:50:00;;;;;;;5.35;1.67;;;4.80;99.90;;;;;;6220501;23;20012;-85
2022/01/30 05:52:26;;;;;;;5.20;1.88;;;4.80;99.90;;;;;;6221004;23;20512;-85
2022/01/30 05:54:52;;;;;;;6.18;1.55;;;4.80;99.90;;;;;;6220383;23;20095;-85
2022/01/30 05:57:17;;;;;;;4.50;1.83;;;4.80;99.90;;;;;;6247186;23;20421;-85
2022/01/30 05:59:43;;;;;;;7.15;1.80;;;4.80;99.90;;;;;;6220290;23;20007;-85
2022/01/30 06:02:09;;;;;;;8.15;2.10;;;4.80;99.90;;;;;;6220337;23;20448;-85
2022/01/30 06:04:34;;;;;;;8.35;2.03;;;4.80;99.90;;;;;;6247454;23;20003;-85
2022/01/30 06:07:01;;;;;;;4.75;1.63;;;4.80;99.90;;;;;;6220194;23;20422;-85
2022/01/30 06:09:27;;;;;;;3.72;1.65;;;4.80;99.90;;;;;;6220260;23;20024;-85
2022/01/30 06:11:53;;;;;;;7.68;2.00;;;4.80;99.90;;;;;;6220119;23;20001;-85
2022/01/30 06:14:21;;;;;;;5.65;1.92;;;4.80;99.90;;;;;;6220148;23;20000;-85
2022/01/30 06:16:49;;;;;;;6.18;2.05;;;4.80;99.90;;;;;;6246973;23;20004;-85
2022/01/30 06:19:18;;;;;;;7.47;2.25;;;4.80;99.90;;;;;;6220130;23;20038;-85
2022/01/30 06:21:44;;;;;;;7.55;2.55;;;4.80;99.90;;;;;;6220038;23;20103;-85
2022/01/30 06:24:10;;;;;;;8.05;1.92;;;4.80;99.90;;;;;;6220043;23;20000;-85
2022/01/30 06:26:35;;;;;;;5.88;2.17;;;4.80;99.90;;;;;;6246959;23;20003;-85
2022/01/30 06:29:01;;;;;;;8.23;2.50;;;4.80;99.90;;;;;;6220019;23;20008;-85
2022/01/30 06:31:27;;;;;;;8.27;2.20;;;4.80;99.90;;;;;;6221329;23;20082;-85
2022/01/30 06:33:53;;;;;;;7.50;1.90;;;4.80;99.90;;;;;;6220008;23;20014;-85
2022/01/30 06:36:19;;;;;;;6.90;2.08;;;4.80;99.90;;;;;;6220009;23;20341;-85
2022/01/30 06:38:44;;;;;;;8.43;2.15;;;4.80;99.90;;;;;;6220576;23;20004;-84
2022/01/30 06:41:10;;;;;;;9.02;1.85;;;4.80;99.90;;;;;;6219977;23;20040;-85
2022/01/30 06:43:36;;;;;;;6.50;2.17;;;4.80;99.90;;;;;;6220029;23;20030;-84
2022/01/30 06:46:02;;;;;;;7.80;2.28;;;4.80;99.90;;;;;;6246752;23;20057;-84
2022/01/30 06:48:28;;;;;;;5.47;1.98;;;4.80;99.90;;;;;;6219875;23;20330;-85
2022/01/30 06:50:54;;;;;;;7.93;2.40;;;4.80;99.90;;;;;;6220570;23;20058;-84
2022/01/30 06:53:19;;;;;;;9.98;2.38;;;4.80;99.90;;;;;;6219730;23;20008;-85
2022/01/30 06:55:45;;;;;;;8.75;2.38;;;4.80;99.90;;;;;;6219761;23;20022;-85
2022/01/30 06:58:14;;;;;;;10.70;2.38;;;4.80;99.90;;;;;;6220129;23;20439;-85
2022/01/30 07:00:41;;;;;;;4.68;1.92;;;4.80;99.90;;;;;;6219605;23;20000;-85
2022/01/30 07:03:07;;;;;;;9.15;2.50;;;4.80;99.90;;;;;;6219712;23;20028;-85
2022/01/30 07:05:33;;;;;;;8.25;2.40;;;4.80;99.90;;;;;;6219648;23;20054;-85
2022/01/30 07:07:59;;;;;;;10.13;2.22;;;4.80;99.90;;;;;;6219630;23;20002;-85
2022/01/30 07:10:25;;;;;;;7.55;2.05;;;4.80;99.90;;;;;;6219698;23;20004;-85
2022/01/30 07:12:50;;;;;;;8.35;2.45;;;4.80;99.90;;;;;;6219697;23;20004;-85
2022/01/30 07:15:16;;;;;;;7.90;2.30;;;4.80;99.90;;;;;;6219653;23;20070;-85
2022/01/30 07:17:42;;;;;;;8.63;2.50;;;4.80;99.90;;;;;;6219540;23;20031;-84
2022/01/30 07:20:09;;;;;;;7.03;2.28;;;4.80;99.90;;;;;;6219418;23;20054;-85
2022/01/30 07:22:35;;;;;;;5.53;2.13;;;4.80;99.90;;;;;;6219453;23;20001;-85
2022/01/30 07:25:02;;;;;;;8.10;2.60;;;4.80;99.90;;;;;;6219486;23;20008;-85
2022/01/30 07:27:28;;;;;;;9.70;2.70;;;4.80;99.90;;;;;;6219473;23;20004;-85
2022/01/30 07:29:54;;;;;;;5.65;1.83;;;4.80;99.90;;;;;;6219459;23;20400;-84
2022/01/30 07:32:20;;;;;;;7.70;2.17;;;4.80;99.90;;;;;;6246327;23;20011;-85
2022/01/30 07:34:50;;;;;;;11.52;2.20;;;4.80;99.90;;;;;;6219404;23;20004;-85
2022/01/30 07:37:16;;;;;;;10.77;2.20;;;4.80;99.90;;;;;;6219383;23;20004;-85
2022/01/30 07:39:42;;;;;;;6.53;2.20;;;4.80;99.90;;;;;;6246186;23;20333;-85
2022/01/30 07:42:08;;;;;;;5.97;2.22;;;4.80;99.90;;;;;;6219447;23;20001;-85
2022/01/30 07:44:34;;;;;;;9.88;2.60;;;4.80;99.90;;;;;;6219611;23;20333;-85
2022/01/30 07:47:00;;;;;;;7.28;2.30;;;4.80;99.90;;;;;;6246173;23;20000;-85
2022/01/30 07:49:26;;;;;;;6.75;2.30;;;4.80;99.90;;;;;;6219165;23;20022;-85
2022/01/30 07:51:53;;;;;;;11.77;2.42;;;4.80;99.90;;;;;;6219332;23;20340;-85
2022/01/30 07:54:19;;;;;;;7.32;2.55;;;4.80;99.90;;;;;;6219210;23;20322;-85
2022/01/30 07:56:45;;;;;;;7.47;2.30;;;4.80;99.90;;;;;;6219566;23;20031;-85
2022/01/30 07:59:10;;;;;;;10.45;2.42;;;4.80;99.90;;;;;;6219286;23;20004;-85
2022/01/30 08:01:36;;;;;;;5.97;2.45;;;4.80;99.90;;;;;;6219566;23;20034;-85
2022/01/30 08:04:03;;;;;;;6.90;2.20;;;4.80;99.90;;;;;;6219238;23;20011;-85
2022/01/30 08:06:29;;;;;;;10.18;2.55;;;4.80;99.90;;;;;;6219083;23;20012;-85
2022/01/30 08:08:55;;;;;;;8.55;2.53;;;4.90;99.90;;;;;;6219192;23;19996;-85
2022/01/30 08:11:20;;;;;;;9.65;2.72;;;4.80;99.90;;;;;;6246038;23;20067;-85
2022/01/30 08:13:46;;;;;;;13.50;2.90;;;4.80;99.90;;;;;;6219182;23;20503;-85
2022/01/30 08:16:12;;;;;;;9.27;2.88;;;4.80;99.90;;;;;;6219167;23;20015;-85
2022/01/30 08:18:38;;;;;;;9.30;2.53;;;4.80;99.90;;;;;;6219274;23;20428;-85
2022/01/30 08:21:05;;;;;;;8.45;2.63;;;4.90;99.90;;;;;;6219020;23;20444;-85
2022/01/30 08:23:33;;;;;;;12.82;3.03;;;4.90;99.90;;;;;;6219087;23;20140;-85
2022/01/30 08:25:59;;;;;;;8.27;2.60;;;4.90;99.90;;;;;;6219091;23;20074;-85
2022/01/30 08:28:24;;;;;;;7.72;2.38;;;5.00;99.90;;;;;;6219058;23;20000;-85
2022/01/30 08:30:53;;;;;;;6.72;2.33;;;5.10;99.90;;;;;;6219498;23;20008;-85
2022/01/30 08:33:19;;;;;;;9.57;2.70;;;5.60;99.90;;;;;;6219042;23;20087;-85
2022/01/30 08:35:47;;;;;;;9.60;2.67;;;5.80;99.90;;;;;;6219039;23;20090;-85
2022/01/30 08:38:18;;;;;;;8.23;2.35;;;6.60;99.90;;;;;;6219009;23;20012;-85
2022/01/30 08:40:47;;;;;;;9.02;2.38;;;6.80;99.90;;;;;;6218750;23;20004;-86
2022/01/30 08:43:14;;;;;;;9.25;2.25;;;7.90;99.90;;;;;;6218885;23;19997;-85
2022/01/30 08:45:41;;;;;;;8.00;2.40;;;9.10;99.90;;;;;;6218975;23;20009;-85
2022/01/30 08:48:07;;;;;;;9.90;2.60;;;10.10;99.90;;;;;;6245553;23;20016;-86
2022/01/30 08:50:32;;;;;;;9.13;2.10;;;10.70;99.90;;;;;;6218906;23;20085;-86
2022/01/30 08:52:58;;;;;;;8.45;2.17;;;11.40;99.90;;;;;;6218844;23;20009;-86
2022/01/30 08:55:27;;;;;;;7.72;2.25;;;11.80;99.90;;;;;;6218956;23;20071;-86
2022/01/30 08:57:52;;;;;;;9.10;2.13;;;12.10;99.90;;;;;;6218915;23;20172;-86
2022/01/30 09:00:18;;;;;;;6.53;1.92;;;12.30;99.90;;;;;;6219690;23;20039;-86
2022/01/30 09:02:45;;;;;;;6.50;1.80;;;12.50;99.90;;;;;;6220781;23;20087;-86
2022/01/30 09:05:12;;;;;;;9.25;2.65;;;12.60;99.90;;;;;;6220645;23;20003;-86
2022/01/30 09:07:38;;;;;;;5.40;2.30;;;12.70;99.90;;;;;;6220722;23;20004;-86
2022/01/30 09:10:06;;;;;;;8.88;2.20;;;12.70;99.90;;;;;;6220781;23;20433;-85
2022/01/30 09:12:34;;;;;;;7.88;2.17;;;11.40;99.90;;;;;;6220729;23;20061;-86
2022/01/30 09:15:00;;;;;;;8.23;2.50;;;10.10;99.90;;;;;;6220797;23;20019;-86
2022/01/30 09:17:28;;;;;;;9.40;2.70;;;9.10;99.90;;;;;;6220759;23;20003;-86
2022/01/30 09:19:54;;;;;;;11.07;2.47;;;8.20;99.90;;;;;;6247446;23;20011;-86
2022/01/30 09:22:19;;;;;;;8.55;2.53;;;7.60;99.90;;;;;;6220640;23;20488;-86
2022/01/30 09:24:46;;;;;;;8.63;2.58;;;7.20;99.90;;;;;;6247525;23;20031;-86
2022/01/30 09:27:12;;;;;;;8.95;2.72;;;6.90;99.90;;;;;;6220563;23;20039;-85
2022/01/30 09:29:39;;;;;;;10.77;2.55;;;6.70;99.90;;;;;;6220454;23;20008;-86
2022/01/30 09:32:06;;;;;;;9.40;2.65;;;6.50;99.90;;;;;;6220601;23;20087;-86
2022/01/30 09:34:32;;;;;;;10.00;2.70;;;6.30;99.90;;;;;;6220487;23;20011;-86
2022/01/30 09:36:58;;;;;;;8.38;2.55;;;6.20;99.90;;;;;;6220541;23;20381;-86
2022/01/30 09:39:24;;;;;;;9.05;2.20;;;6.20;99.90;;;;;;6220415;23;20003;-86
2022/01/30 09:41:53;;;;;;;9.57;2.83;;;6.20;99.90;;;;;;6220343;23;20008;-86
2022/01/30 09:44:19;;;;;;;16.17;3.03;;;6.10;99.90;;;;;;6220404;23;20035;-86
2022/01/30 09:46:46;;;;;;;10.43;2.92;;;6.00;99.90;;;;;;6220701;23;20004;-86
2022/01/30 09:49:12;;;;;;;9.63;2.45;;;6.00;99.90;;;;;;6215116;23;20012;-86
2022/01/30 09:51:39;;;;;;;13.35;3.08;;;5.90;99.90;;;;;;6216527;23;20079;-86
2022/01/30 09:54:06;;;;;;;13.75;2.78;;;6.00;99.90;;;;;;6215302;23;20012;-86
2022/01/30 09:56:32;;;;;;;13.50;2.72;;;6.40;99.90;;;;;;6215312;23;20012;-86
2022/01/30 09:58:58;;;;;;;19.27;3.38;;;6.60;99.90;;;;;;6215629;23;20434;-86
2022/01/30 10:01:33;;;;;;;9.10;2.55;;;6.50;99.90;;;;;;6215224;23;20028;-86
2022/01/30 10:03:59;;;;;;;9.70;2.95;;;6.40;99.90;;;;;;6215275;23;20001;-86
2022/01/30 10:06:31;;;;;;;12.40;3.13;;;6.60;99.90;;;;;;6215234;23;20314;-86
2022/01/30 10:08:59;;;;;;;11.27;2.85;;;7.20;99.90;;;;;;6215307;23;20405;-86
2022/01/30 10:11:46;;;;;;;9.65;2.63;;;7.30;99.90;;;;;;6215005;23;20373;-85
2022/01/30 10:14:16;;;;;;;11.38;2.78;;;7.60;99.90;;;;;;6215233;23;20004;-86
2022/01/30 10:16:46;;;;;;;10.55;2.85;;;7.30;99.90;;;;;;6215207;23;20493;-86
2022/01/30 10:19:20;;;;;;;8.50;2.60;;;7.10;99.90;;;;;;6216144;23;20463;-85
2022/01/30 10:22:04;;;;;;;7.72;2.75;;;7.10;99.90;;;;;;6215005;23;20030;-85
2022/01/30 10:24:29;;;;;;;10.07;2.40;;;7.00;99.90;;;;;;6216137;23;20051;-86
2022/01/30 10:26:59;;;;;;;9.27;2.60;;;7.00;99.90;;;;;;6216615;23;19997;-86
2022/01/30 10:29:28;;;;;;;14.57;3.28;;;6.80;99.90;;;;;;6214896;23;20008;-86
2022/01/30 10:32:04;;;;;;;9.48;2.60;;;6.70;99.90;;;;;;6214781;23;20004;-86
2022/01/30 10:34:31;;;;;;;10.65;2.90;;;6.70;99.90;;;;;;6215017;23;20035;-86
2022/01/30 10:37:12;;;;;;;12.65;3.10;;;6.70;99.90;;;;;;6215349;23;20008;-86
2022/01/30 10:39:58;;;;;;;12.15;3.08;;;6.50;99.90;;;;;;6214838;23;20433;-86
2022/01/30 10:42:39;;;;;;;8.02;2.72;;;6.40;99.90;;;;;;6214931;23;20032;-85
2022/01/30 10:45:07;;;;;;;13.52;3.10;;;6.30;99.90;;;;;;6214895;23;20382;-85
2022/01/30 10:47:35;;;;;;;12.63;3.47;;;6.30;99.90;;;;;;6219156;23;20062;-86
2022/01/30 10:50:00;;;;;;;7.20;2.92;;;6.30;99.90;;;;;;6221171;23;20018;-85
2022/01/30 10:52:26;;;;;;;12.60;3.53;;;6.40;99.90;;;;;;6220009;23;20457;-85
2022/01/30 10:55:04;;;;;;;15.00;3.75;;;6.30;99.90;;;;;;6219745;23;20007;-85
2022/01/30 10:57:30;;;;;;;10.75;3.58;;;6.30;99.90;;;;;;6219845;23;20015;-86
2022/01/30 10:59:56;;;;;;;16.55;3.55;;;6.20;99.90;;;;;;6246417;23;20000;-85
2022/01/30 11:02:25;;;;;;;15.50;3.10;;;6.20;99.90;;;;;;6246570;23;20010;-85
2022/01/30 11:05:01;;;;;;;10.45;3.33;;;6.20;99.90;;;;;;6246508;23;20024;-86
2022/01/30 11:07:29;;;;;;;19.13;3.22;;;6.10;99.90;;;;;;6219646;23;20027;-86
2022/01/30 11:10:07;;;;;;;15.50;2.92;;;6.20;99.90;;;;;;6219646;23;20001;-85
2022/01/30 11:12:56;;;;;;;15.25;3.25;;;6.20;99.90;;;;;;6219635;23;20058;-86
2022/01/30 11:15:34;;;;;;;9.98;3.00;;;6.40;99.90;;;;;;6219638;23;20514;-86
2022/01/30 11:18:03;;;;;;;11.10;2.47;;;6.60;99.90;;;;;;6219602;23;20057;-86
2022/01/30 11:20:33;;;;;;;15.82;2.90;;;6.70;99.90;;;;;;6219416;23;20005;-85
2022/01/30 11:23:04;;;;;;;11.63;3.00;;;6.80;99.90;;;;;;6219416;23;20003;-85
2022/01/30 11:25:35;;;;;;;12.10;2.90;;;6.90;99.90;;;;;;6219240;23;20027;-86
2022/01/30 11:28:03;;;;;;;9.95;3.15;;;7.00;99.90;;;;;;6246628;23;20007;-85
2022/01/30 11:30:34;;;;;;;11.70;3.00;;;7.10;99.90;;;;;;6219387;23;20004;-86
2022/01/30 11:33:01;;;;;;;12.00;2.85;;;7.20;99.90;;;;;;6219420;23;20012;-84
2022/01/30 11:35:27;;;;;;;11.35;3.20;;;7.20;99.90;;;;;;6246185;23;20417;-85
2022/01/30 11:37:54;;;;;;;14.38;3.30;;;7.30;99.90;;;;;;6219254;23;20035;-84
2022/01/30 11:40:21;;;;;;;12.65;3.17;;;7.30;99.90;;;;;;6246324;23;20004;-85
2022/01/30 11:42:49;;;;;;;13.43;3.30;;;7.20;99.90;;;;;;6219416;23;20385;-85
2022/01/30 11:45:21;;;;;;;14.15;2.92;;;7.20;99.90;;;;;;6219300;23;20433;-85
2022/01/30 11:48:06;;;;;;;10.70;2.88;;;7.10;99.90;;;;;;6219132;23;20012;-86
2022/01/30 11:50:35;;;;;;;10.23;2.83;;;7.00;99.90;;;;;;6219312;23;20008;-86
2022/01/30 11:53:04;;;;;;;10.68;2.72;;;6.90;99.90;;;;;;6219256;23;20004;-85
2022/01/30 11:55:50;;;;;;;14.50;3.42;;;6.90;99.90;;;;;;6219645;23;20085;-86
2022/01/30 11:58:42;;;;;;;11.10;2.97;;;6.80;99.90;;;;;;6219257;23;20005;-86
2022/01/30 12:01:14;;;;;;;12.13;3.15;;;6.60;99.90;;;;;;6219186;23;20008;-85
2022/01/30 12:03:59;;;;;;;11.73;2.65;;;6.50;99.90;;;;;;6219204;23;20027;-85
2022/01/30 12:06:25;;;;;;;13.50;3.03;;;6.50;99.90;;;;;;6219138;23;20381;-85
2022/01/30 12:09:04;;;;;;;10.00;2.85;;;6.40;99.90;;;;;;6219238;23;20046;-83
2022/01/30 12:11:36;;;;;;;10.00;2.83;;;6.40;99.90;;;;;;6219236;23;20008;-85
2022/01/30 12:14:04;;;;;;;12.57;2.97;;;6.30;99.90;;;;;;6246416;23;20016;-85
2022/01/30 12:16:45;;;;;;;12.45;2.90;;;6.30;99.90;;;;;;6219155;23;20004;-86
2022/01/30 12:19:13;;;;;;;11.98;3.38;;;6.30;99.90;;;;;;6219154;23;20011;-85
2022/01/30 12:21:40;;;;;;;11.27;2.90;;;6.30;99.90;;;;;;6219007;23;20336;-86
2022/01/30 12:24:28;;;;;;;14.23;3.15;;;6.30;99.90;;;;;;6245943;23;19993;-86
2022/01/30 12:27:02;;;;;;;14.00;3.45;;;6.30;99.90;;;;;;6219176;23;20023;-84
2022/01/30 12:29:45;;;;;;;9.20;2.85;;;6.40;99.90;;;;;;6219128;23;20000;-85
2022/01/30 12:32:22;;;;;;;11.07;2.75;;;6.40;99.90;;;;;;6219104;23;20056;-85
2022/01/30 12:34:54;;;;;;;9.55;2.83;;;6.40;99.90;;;;;;6219157;23;20043;-85
2022/01/30 12:37:24;;;;;;;11.77;3.20;;;6.40;99.90;;;;;;6247991;23;20008;-85
2022/01/30 12:39:50;;;;;;;10.30;3.17;;;6.50;99.90;;;;;;6221238;23;20008;-85
2022/01/30 12:42:17;;;;;;;15.60;3.53;;;6.50;99.90;;;;;;6221045;23;20092;-85
2022/01/30 12:44:44;;;;;;;13.48;3.22;;;6.50;99.90;;;;;;6221004;23;20084;-86
2022/01/30 12:47:10;;;;;;;10.55;2.83;;;6.50;99.90;;;;;;6220944;23;20004;-85
2022/01/30 12:49:51;;;;;;;11.60;3.10;;;6.50;99.90;;;;;;6220987;23;20031;-86
2022/01/30 12:52:36;;;;;;;11.70;2.95;;;6.40;99.90;;;;;;6220950;23;20134;-86
2022/01/30 12:55:10;;;;;;;12.02;3.00;;;6.40;99.90;;;;;;6220939;23;20054;-85
2022/01/30 12:57:36;;;;;;;12.65;3.10;;;6.40;99.90;;;;;;6247844;23;20000;-85
2022/01/30 13:00:05;;;;;;;14.13;3.13;;;6.50;99.90;;;;;;6220819;23;20004;-86
2022/01/30 13:02:34;;;;;;;11.77;2.83;;;6.60;99.90;;;;;;6247642;23;19996;-85
2022/01/30 13:05:13;;;;;;;10.88;2.83;;;6.70;99.90;;;;;;6220713;23;20007;-85
2022/01/30 13:07:38;;;;;;;8.25;2.50;;;6.80;99.90;;;;;;6247646;23;20000;-84
2022/01/30 13:10:11;;;;;;;9.95;2.60;;;6.90;99.90;;;;;;6221787;23;20083;-85
2022/01/30 13:12:37;;;;;;;11.63;2.88;;;7.00;99.90;;;;;;6220804;23;20043;-85
2022/01/30 13:15:08;;;;;;;8.48;2.53;;;7.10;99.90;;;;;;6220791;23;20079;-85
2022/01/30 13:17:33;;;;;;;8.93;2.80;;;7.20;99.90;;;;;;6220701;23;20004;-86
2022/01/30 13:20:00;;;;;;;10.70;3.10;;;7.30;99.90;;;;;;6220612;23;20031;-86
2022/01/30 13:22:38;;;;;;;12.00;3.08;;;7.30;99.90;;;;;;6220694;23;20421;-85
2022/01/30 13:25:07;;;;;;;10.70;2.80;;;7.40;99.90;;;;;;6220626;23;20001;-85
2022/01/30 13:27:35;;;;;;;10.50;2.90;;;7.40;99.90;;;;;;6220615;23;20449;-86
2022/01/30 13:30:01;;;;;;;12.80;3.10;;;7.40;99.90;;;;;;6220613;23;19996;-84
2022/01/30 13:32:27;;;;;;;15.93;3.47;;;7.40;99.90;;;;;;6220571;23;20012;-85
2022/01/30 13:34:53;;;;;;;11.27;3.40;;;7.50;99.90;;;;;;6221758;23;20023;-85
2022/01/30 13:37:20;;;;;;;15.60;3.22;;;7.40;99.90;;;;;;6220567;23;20011;-85
2022/01/30 13:40:02;;;;;;;11.10;2.78;;;7.40;99.90;;;;;;6220405;23;20000;-85
2022/01/30 13:48:02;;;;;;;8.85;2.72;;;7.60;99.90;;;;;;6139883;23;20022;-85
2022/01/30 13:50:35;;;;;;;10.32;3.00;;;7.60;99.90;;;;;;6220467;23;20008;-85